ARFOR WordPress Shortcode Example

and like us on FB

This page is used to demonstrate the ARFOR feature of the Metar WordPress plugin.

BANKSTOWN YSBK

TAF YSBK 230502Z 2306/2318
08010KT 9999 FEW035
FM230900 VRB03KT 9999 FEW030
RMK
T 20 17 15 13 Q 1016 1018 1019 1018

METAR YSBK 230930Z AUTO 03004KT 9999 // NCD 17/12 Q1018
RMK RF00.0/000.0

BATHURST YBTH

TAF YBTH 230719Z 2308/2320
VRB03KT CAVOK
PROB30 2316/2320 0200 FG
RMK
T 17 12 10 08 Q 1017 1019 1020 1019

METAR YBTH 230930Z AUTO 05007KT 9999 // NCD 13/06 Q1018 RMK
RF00.0/000.0

CAMDEN YSCN

TAF YSCN 230502Z 2306/2318
05008KT 9999 FEW030
FM230900 VRB03KT 9999 FEW030
RMK
T 22 17 14 12 Q 1016 1018 1019 1018

METAR YSCN 230930Z AUTO 08004KT 9999 // NCD 16/11 Q1018 RMK
RF00.0/000.0

* CANBERRA YSCB

TAF YSCB 230502Z 2306/2406
31010KT 9999 FEW040
FM231400 31004KT 9999 FEW015
FM232200 30012KT CAVOK
PROB30 2316/2320 3000 BR FEW002
RMK
T 21 16 12 09 Q 1016 1017 1018 1018

METAR YSCB 230930Z AUTO 01006KT 9999 // NCD 15/04 Q1017
RMK RF00.0/000.0

COOMA YCOM

TAF YCOM 230652Z 2308/2320
22008KT CAVOK
FM231100 03005KT 9999 SCT010
FM231600 31006KT CAVOK
RMK
T 16 09 06 06 Q 1016 1018 1018 1017

METAR YCOM 230930Z AUTO 04008KT 9999 // NCD 12/06 Q1017 RMK
RF00.0/000.0

COOTAMUNDRA YCTM

Nil current TAF.

METAR/SPECI observations are not generated for this location.

COWRA YCWR

Nil current TAF.

METAR YCWR 230930Z AUTO 00000KT //// // ////// 18/04 Q1016
RMK RF00.0/000.0

FORBES YFBS

Nil current TAF.

METAR YFBS 230930Z AUTO 22003KT //// // ////// 16/10 Q1016 RMK
RF00.0/000.0

GOULBURN YGLB

TAF AMD YGLB 222303Z 2223/2308
VRB03KT 9999 BKN004
BECMG 2223/2224 30008KT CAVOK
RMK
T 11 18 20 16 Q 1019 1018 1016 1017

METAR YGLB 230930Z AUTO 00000KT 9999 // NCD 12/07 Q1018 RMK
RF00.0/000.2 PRESENT WEATHER SENSOR US

HOLSWORTHY YSHW

TAF YSHW 230502Z 2306/2318
08010KT 9999 FEW035
FM230900 VRB03KT 9999 FEW030
RMK
T 20 16 14 13 Q 1017 1018 1019 1018

METAR YSHW 230930Z AUTO 13005KT 9999 // NCD 16/12 Q1018 RMK
RF00.0/000.2

LORD HOWE ISLAND YLHI

TAF YLHI 230512Z 2306/2406
23008KT 9999 -SHRA SCT030
RMK
T 20 19 19 19 Q 1015 1017 1019 1018

METAR YLHI 230930Z AUTO 00000KT 9999 // NCD 15/12 Q1018
RMK RF00.0/000.2

MALLACOOTA YMCO

Nil current TAF.

METAR YMCO 230930Z AUTO 00000KT //// // ////// 12/09 Q1018
RMK RF00.0/000.0

MERIMBULA YMER

TAF YMER 230711Z 2308/2320
VRB03KT 9999 FEW025
PROB30 2313/2314 2000 BR
RMK
T 16 14 11 10 Q 1017 1018 1017 1016

METAR YMER 230930Z AUTO 00000KT 9999 // NCD 12/10 Q1018 RMK
RF00.0/000.0

MORUYA YMRY

TAF YMRY 230711Z 2308/2320
04010KT 9999 FEW025
BECMG 2311/2313 VRB03KT 9999 FEW025
PROB30 2313/2320 2000 BR
RMK
T 17 14 12 11 Q 1017 1018 1017 1016

METAR YMRY 230930Z AUTO 05006KT 9999 // NCD 16/12 Q1018 RMK
RF00.0/000.0

NORFOLK ISLAND YSNF

TAF AMD YSNF 230626Z 2306/2406
25010KT 9999 -SHRA SCT012 BKN030
FM230800 20010KT 9999 SCT010 BKN020
FM232300 16014KT 9999 FEW020 BKN025
TEMPO 2306/2318 BKN010
RMK
T 19 17 17 16 Q 1012 1015 1016 1015

SPECI YSNF 230930Z AUTO 22008KT 9999 // BKN014 18/15 Q1015
RMK RF00.0/000.0

* NOWRA YSNW

YSNW TAF YSNW 230450Z 2306/2318
08010KT 9999 SCT040
FM231200 32008KT CAVOK
RMK
T 19 15 12 12 Q 1016 1017 1018 1017

METAR YSNW 230930Z AUTO 13005KT 9999 // NCD 15/11 Q1017
RMK RF00.0/000.0

ORANGE YORG

TAF YORG 230720Z 2308/2320
VRB03KT CAVOK
RMK
T 15 11 09 07 Q 1018 1020 1020 1019

METAR YORG 230930Z AUTO 19002KT 9999 // NCD 11/05 Q1019 RMK
RF00.0/000.0

PARKES YPKS

TAF YPKS 230104Z 2302/2314
22005KT 9999 FEW050
RMK
T 21 22 19 13 Q 1017 1016 1016 1018

METAR YPKS 230930Z AUTO 22006KT 9999 // NCD 17/07 Q1016 RMK
RF00.0/000.0

RICHMOND (NSW) YSRI

TAF YSRI 230511Z 2306/2406
10005KT 9999 SCT040
FM230800 07005KT 9999 FEW010 SCT040
FM231200 VRB03KT 9999 FEW060
FM232100 32006KT 9999 FEW015
PROB30 2318/2321 0500 FG
RMK
T 22 17 14 12 Q 1016 1018 1019 1018

METAR YSRI 230930Z AUTO 07006KT 9999 // NCD 17/12 Q1018 RMK
RF00.0/000.2 PRESENT WEATHER SENSOR US

* SYDNEY YSSY

TAF YSSY 230503Z 2306/2412
11010KT 9999 FEW035
FM230900 06008KT 9999 FEW030
FM231200 33008KT 9999 FEW025
FM240000 04015KT CAVOK
FM241000 33008KT CAVOK
RMK
T 20 18 17 15 Q 1017 1018 1019 1018

TTF METAR YSSY 230930Z 05007KT CAVOK 19/14 Q1018
RMK RF00.0/000.0
NOSIG

TEMORA YTEM

Nil current TAF.

METAR YTEM 230930Z AUTO 18003KT //// // ////// 16/08 Q1017 RMK
RF00.0/000.0

WAGGA WAGGA YSWG

TAF YSWG 230454Z 2306/2318
16005KT 9999 FEW045
FM230900 12004KT CAVOK
RMK
T 23 17 13 12 Q 1015 1016 1017 1017

METAR YSWG 230930Z AUTO 08005KT 9999 // NCD 18/07 Q1016 RMK
RF00.0/000.0

WOLLONGONG YWOL

TAF YWOL 230710Z 2308/2320
04010KT 9999 FEW025
BECMG 2312/2314 VRB03KT 9999 FEW025
PROB30 2315/2320 2000 BR
RMK
T 18 14 12 12 Q 1017 1019 1018 1017

METAR YWOL 230930Z AUTO 31005KT 9999 // NCD 15/11 Q1018 RMK
RF00.0/000.0

YOUNG YYNG

TAF YYNG 230104Z 2302/2314
20005KT 9999 FEW050
RMK
T 20 22 19 11 Q 1017 1016 1016 1017

METAR YYNG 230930Z AUTO 22005KT 190V260 //// // ////// 13/08 Q1017
RMK RF00.0/000.0

* Note: The latest TTF automatically supersedes the TAF for the 3 hr validity of the TTF, unless otherwise specified in the TTF.